Terminal Aerodrome Forecast
Issued by NWS

Home | Current Version | Previous Version | Text Only | Print | Product List | Glossary On
Versions: 1 2 3 4 5 6 7 8 9 10 11 12 13 14
000
FTUS42 KMLB 291125
TAFLEE
TAF
KLEE 291125Z 2912/3012 16004KT P6SM FEW035 SCT050
     FM291600 21005KT P6SM SCT045
     FM291800 17007KT P6SM VCTS BKN045CB
     FM292200 22006KT P6SM SCT050 BKN250
     FM300200 22003KT P6SM FEW060 SCT250=

USA.gov is the U.S. government's official web portal to all federal, state and local government web resources and services.